Time;durP1;ratioP1;P1;durP2;ratioP2;P2;SDS_P1;SDS_P2;PMS_P1;PMS_P2;Temp;Humidity;BMP_temperature;BMP_pressure;BME280_temperature;BME280_humidity;BME280_pressure;Samples;Min_cycle;Max_cycle;Signal;HPM_P1;HPM_P2
2022/02/03 00:00:32;;;;;;;9.38;2.67;;;;;;;;;;6196043;23;20084;-89
2022/02/03 00:22:04;;;;;;;9.93;2.13;;;;;;;;;;6222197;23;20023;-89
2022/02/03 00:24:38;;;;;;;8.05;2.45;;;;;;;;;;6222298;23;20080;-89
2022/02/03 00:27:12;;;;;;;12.20;2.10;;;;;;;;;;6221499;23;20403;-88
2022/02/03 00:29:59;;;;;;;7.13;2.05;;;;;;;;;;6222120;23;20008;-88
2022/02/03 00:38:15;;;;;;;9.60;2.60;;;;;;;;;;6231890;23;20311;-89
2022/02/03 00:48:59;;;;;;;11.77;2.20;;;;;;;;;;6160093;23;20426;-90
2022/02/03 00:54:31;;;;;;;7.47;2.00;;;;;;;;;;6159863;23;20016;-89
2022/02/03 00:57:08;;;;;;;9.45;2.22;;;;;;;;;;6135142;23;20061;-90
2022/02/03 00:59:36;;;;;;;12.85;2.15;;;;;;;;;;6159936;23;20258;-90
2022/02/03 01:02:05;;;;;;;14.10;2.17;;;;;;;;;;6135225;23;20013;-90
2022/02/03 01:04:31;;;;;;;10.90;1.65;;;;;;;;;;6160058;23;20009;-89
2022/02/03 01:10:37;;;;;;;10.95;1.90;;;;;;;;;;6160045;23;20004;-90
2022/02/03 01:13:16;;;;;;;13.05;2.30;;;;;;;;;;6221548;23;20024;-89
2022/02/03 01:15:53;;;;;;;12.57;2.00;;;;;;;;;;6221389;23;20016;-88
2022/02/03 01:46:10;;;;;;;9.23;2.25;;;;;;;;;;6221441;23;20015;-90
2022/02/03 01:54:09;;;;;;;9.77;2.13;;;;;;;;;;6071824;23;20030;-90
2022/02/03 01:56:39;;;;;;;10.82;2.55;;;;;;;;;;6071716;23;20007;-90
2022/02/03 01:59:13;;;;;;;10.82;2.30;;;;;;;;;;6071627;23;20375;-90
2022/02/03 02:01:39;;;;;;;9.85;1.90;;;;;;;;;;6047473;23;20006;-88
2022/02/03 02:07:06;;;;;;;11.88;2.40;;;;;;;;;;6204675;23;20021;-90
2022/02/03 03:31:04;;;;;;;8.88;2.47;;;;;;;;;;6220824;23;20331;-90
2022/02/03 03:33:43;;;;;;;8.30;2.25;;;;;;;;;;6220693;23;20013;-90
2022/02/03 03:36:15;;;;;;;9.48;1.98;;;;;;;;;;6220515;23;20080;-89
2022/02/03 03:38:46;;;;;;;8.40;2.22;;;;;;;;;;6220929;23;20012;-90
2022/02/03 03:41:16;;;;;;;7.03;2.17;;;;;;;;;;6220445;23;20016;-90
2022/02/03 03:43:59;;;;;;;6.40;2.20;;;;;;;;;;6221468;23;20058;-90
2022/02/03 03:46:32;;;;;;;6.10;1.83;;;;;;;;;;6222828;23;20011;-90
2022/02/03 03:49:17;;;;;;;6.72;1.90;;;;;;;;;;6196084;23;20008;-90
2022/02/03 03:51:47;;;;;;;9.23;4.35;;;;;;;;;;6222648;23;20004;-90
2022/02/03 03:54:19;;;;;;;13.88;3.92;;;;;;;;;;6222587;23;20051;-89
2022/02/03 03:57:07;;;;;;;10.30;3.03;;;;;;;;;;6196326;23;20031;-89
2022/02/03 04:00:04;;;;;;;9.77;3.47;;;;;;;;;;6221762;23;20005;-88
2022/02/03 04:42:15;;;;;;;18.90;8.05;;;;;;;;;;6072563;23;20011;-88
2022/02/03 05:05:11;;;;;;;6.38;2.58;;;;;;;;;;6230044;23;20241;-90
2022/02/03 06:15:08;;;;;;;8.23;3.38;;;;;;;;;;6220930;23;20048;-91
2022/02/03 06:20:39;;;;;;;6.93;2.53;;;;;;;;;;6220374;23;20007;-89
2022/02/03 06:20:42;;;;;;;5.57;2.92;;;;;;;;;;6220790;23;20097;-89
2022/02/03 06:23:14;;;;;;;8.45;3.25;;;;;;;;;;6221274;23;20350;-88
2022/02/03 06:28:25;;;;;;;13.63;6.55;;;;;;;;;;6221197;23;20019;-90
2022/02/03 06:30:51;;;;;;;11.35;5.70;;;;;;;;;;6221073;23;20000;-89
2022/02/03 06:33:17;;;;;;;8.68;3.90;;;;;;;;;;6194280;23;20059;-88
2022/02/03 06:35:43;;;;;;;7.32;3.28;;;;;;;;;;6220923;23;20115;-87
2022/02/03 06:38:18;;;;;;;12.15;3.00;;;;;;;;;;6220859;23;20016;-88
2022/02/03 06:40:44;;;;;;;8.70;3.42;;;;;;;;;;6220649;23;20005;-88
2022/02/03 06:43:14;;;;;;;6.78;3.40;;;;;;;;;;6194661;23;20291;-88
2022/02/03 06:45:47;;;;;;;6.68;3.67;;;;;;;;;;6194873;23;20008;-89
2022/02/03 06:48:17;;;;;;;8.48;3.50;;;;;;;;;;6221445;23;20047;-87
2022/02/03 06:50:48;;;;;;;12.90;3.90;;;;;;;;;;6193751;23;20011;-87
2022/02/03 06:53:19;;;;;;;10.90;3.85;;;;;;;;;;6194550;23;20008;-88
2022/02/03 06:56:04;;;;;;;;;;;;;;;;;;;;;
2022/02/03 06:58:26;;;;;;;6.43;3.08;;;;;;;;;;6220841;23;20087;-89
2022/02/03 07:03:34;;;;;;;6.90;2.78;;;;;;;;;;6231173;23;20011;-90
2022/02/03 07:06:00;;;;;;;6.53;2.83;;;;;;;;;;6220424;23;20356;-90
2022/02/03 07:08:29;;;;;;;7.68;3.00;;;;;;;;;;6221366;23;20021;-90
2022/02/03 07:10:56;;;;;;;8.32;2.95;;;;;;;;;;6221160;23;20004;-89
2022/02/03 07:13:22;;;;;;;8.15;2.83;;;;;;;;;;6195059;23;20008;-88
2022/02/03 07:15:48;;;;;;;7.20;3.10;;;;;;;;;;6220957;23;20032;-89
2022/02/03 07:18:14;;;;;;;8.88;3.45;;;;;;;;;;6221558;23;20008;-89
2022/02/03 07:20:41;;;;;;;10.15;3.55;;;;;;;;;;6222698;23;20000;-88
2022/02/03 07:23:07;;;;;;;11.40;3.50;;;;;;;;;;6196494;23;20004;-88
2022/02/03 07:25:33;;;;;;;12.00;3.42;;;;;;;;;;6222831;23;20281;-89
2022/02/03 07:28:01;;;;;;;8.90;3.22;;;;;;;;;;6222933;23;20028;-89
2022/02/03 07:30:28;;;;;;;13.65;5.50;;;;;;;;;;6195973;23;20382;-88
2022/02/03 07:32:59;;;;;;;11.90;6.30;;;;;;;;;;6221873;23;20011;-88
2022/02/03 07:35:27;;;;;;;10.32;5.47;;;;;;;;;;6222339;23;20019;-89
2022/02/03 07:37:54;;;;;;;12.07;6.05;;;;;;;;;;6222817;23;20059;-88
2022/02/03 07:40:20;;;;;;;9.30;4.65;;;;;;;;;;6222296;23;20351;-88
2022/02/03 07:42:48;;;;;;;11.80;4.63;;;;;;;;;;6195985;23;20035;-89
2022/02/03 07:45:15;;;;;;;9.77;3.90;;;;;;;;;;6222175;23;20008;-88
2022/02/03 07:47:49;;;;;;;9.57;3.50;;;;;;;;;;6222759;23;20008;-87
2022/02/03 07:50:16;;;;;;;20.83;7.85;;;;;;;;;;6196056;23;20001;-87
2022/02/03 07:52:43;;;;;;;13.20;5.30;;;;;;;;;;6195136;23;20088;-88
2022/02/03 07:55:10;;;;;;;13.32;4.20;;;;;;;;;;6222216;23;20004;-88
2022/02/03 07:57:36;;;;;;;13.52;4.15;;;;;;;;;;6222784;23;19997;-88
2022/02/03 08:00:03;;;;;;;16.77;6.28;;;;;;;;;;6222492;23;19993;-89
2022/02/03 08:02:29;;;;;;;14.52;5.47;;;;;;;;;;6221956;23;20001;-88
2022/02/03 08:04:56;;;;;;;17.65;7.10;;;;;;;;;;6222098;23;20016;-87
2022/02/03 08:07:24;;;;;;;24.70;13.48;;;;;;;;;;6195349;23;20043;-89
2022/02/03 08:12:18;;;;;;;65.30;21.73;;;;;;;;;;6232456;23;20012;-88
2022/02/03 08:14:48;;;;;;;77.60;20.65;;;;;;;;;;6222023;23;20079;-89
2022/02/03 08:17:20;;;;;;;96.15;24.73;;;;;;;;;;6222224;23;20033;-87
2022/02/03 08:20:03;;;;;;;84.13;20.92;;;;;;;;;;6222213;23;20008;-87
2022/02/03 08:22:37;;;;;;;93.65;23.05;;;;;;;;;;6222109;23;20000;-88
2022/02/03 08:25:20;;;;;;;35.78;9.85;;;;;;;;;;6195372;23;20004;-88
2022/02/03 08:33:20;;;;;;;33.58;9.98;;;;;;;;;;6131691;23;20442;-90
2022/02/03 08:35:49;;;;;;;30.90;8.32;;;;;;;;;;6130608;23;20305;-90
2022/02/03 08:38:27;;;;;;;20.70;6.38;;;;;;;;;;6106327;23;20278;-89
2022/02/03 08:41:12;;;;;;;25.67;9.98;;;;;;;;;;6126344;23;20366;-89
2022/02/03 08:43:40;;;;;;;22.40;6.80;;;;;;;;;;6130675;23;20005;-89
2022/02/03 08:46:07;;;;;;;16.90;6.45;;;;;;;;;;6106217;23;20046;-91
2022/02/03 08:48:34;;;;;;;20.88;8.82;;;;;;;;;;6130489;23;20401;-91
2022/02/03 08:51:01;;;;;;;18.67;8.15;;;;;;;;;;6130680;23;20034;-90
2022/02/03 08:53:39;;;;;;;17.33;5.95;;;;;;;;;;6105626;23;20088;-90
2022/02/03 09:37:51;;;;;;;13.85;4.43;;;;;;;;;;6074240;23;20046;-92
2022/02/03 10:01:41;;;;;;;12.38;5.15;;;;;;;;;;5987785;24;20383;-91
2022/02/03 10:04:24;;;;;;;11.18;4.13;;;;;;;;;;5986639;24;20013;-91
2022/02/03 10:06:56;;;;;;;11.15;4.22;;;;;;;;;;5985812;24;20028;-92
2022/02/03 10:09:35;;;;;;;13.23;4.70;;;;;;;;;;6023102;23;20023;-92
2022/02/03 10:12:01;;;;;;;11.10;4.75;;;;;;;;;;6043045;23;20007;-91
2022/02/03 10:14:34;;;;;;;9.02;4.30;;;;;;;;;;6019406;23;20421;-91
2022/02/03 10:17:02;;;;;;;17.30;8.02;;;;;;;;;;6043122;23;20479;-93
2022/02/03 10:19:34;;;;;;;18.80;8.38;;;;;;;;;;6041614;23;20266;-92
2022/02/03 10:22:02;;;;;;;16.35;5.85;;;;;;;;;;6105300;23;20002;-92
2022/02/03 10:24:37;;;;;;;10.98;4.07;;;;;;;;;;6129762;23;20373;-92
2022/02/03 10:27:03;;;;;;;12.68;6.10;;;;;;;;;;6129909;23;20029;-92
2022/02/03 10:29:37;;;;;;;12.18;4.28;;;;;;;;;;6105339;23;20005;-92
2022/02/03 10:32:08;;;;;;;13.70;4.55;;;;;;;;;;6183729;23;20005;-91
2022/02/03 10:34:39;;;;;;;9.75;4.53;;;;;;;;;;6194550;23;20005;-91
2022/02/03 10:37:25;;;;;;;7.25;3.50;;;;;;;;;;6221491;23;20015;-92
2022/02/03 10:48:26;;;;;;;8.10;3.42;;;;;;;;;;6231061;23;20019;-92
2022/02/03 10:51:18;;;;;;;15.38;3.40;;;;;;;;;;6220950;23;20005;-92
2022/02/03 11:04:50;;;;;;;5.90;2.50;;;;;;;;;;6232541;23;20020;-91
2022/02/03 11:07:36;;;;;;;6.72;2.63;;;;;;;;;;6196443;23;20020;-92
2022/02/03 11:12:29;;;;;;;11.70;4.50;;;;;;;;;;6232895;23;20083;-92
2022/02/03 11:14:58;;;;;;;14.95;6.00;;;;;;;;;;6222449;23;20008;-92
2022/02/03 11:17:24;;;;;;;7.75;3.60;;;;;;;;;;6222848;23;20048;-91
2022/02/03 11:19:53;;;;;;;7.93;3.33;;;;;;;;;;6196734;23;20004;-92
2022/02/03 11:22:28;;;;;;;13.52;4.13;;;;;;;;;;6223110;23;20113;-92
2022/02/03 11:25:10;;;;;;;7.70;3.28;;;;;;;;;;6222635;23;20427;-92
2022/02/03 11:27:52;;;;;;;13.57;5.20;;;;;;;;;;6196416;23;20008;-91
2022/02/03 11:47:38;;;;;;;6.18;2.72;;;;;;;;;;6111800;23;20010;-91
2022/02/03 12:01:44;;;;;;;14.80;6.45;;;;;;;;;;5988551;24;20019;-91
2022/02/03 12:13:19;;;;;;;5.82;2.80;;;;;;;;;;5987637;24;20117;-90
2022/02/03 12:16:04;;;;;;;9.93;3.80;;;;;;;;;;6036170;23;20334;-92
2022/02/03 12:21:31;;;;;;;11.30;4.13;;;;;;;;;;6101531;23;20017;-91
2022/02/03 12:24:03;;;;;;;;;;;;;;;;;;6101872;23;20011;-91
2022/02/03 12:26:38;;;;;;;8.60;2.77;;;;;;;;;;6101645;23;19905;-92
2022/02/03 12:29:15;;;;;;;14.43;6.50;;;;;;;;;;6101690;23;20031;-91
2022/02/03 12:32:01;;;;;;;26.80;10.30;;;;;;;;;;6144958;23;20004;-92
2022/02/03 12:37:22;;;;;;;18.10;5.95;;;;;;;;;;6222008;23;20019;-92
2022/02/03 12:40:01;;;;;;;15.52;7.32;;;;;;;;;;6222511;23;20021;-91
2022/02/03 12:45:28;;;;;;;5.15;2.35;;;;;;;;;;6232526;23;20008;-92
2022/02/03 12:47:55;;;;;;;6.25;2.28;;;;;;;;;;6222417;23;20040;-92
2022/02/03 12:50:41;;;;;;;4.75;2.00;;;;;;;;;;6195432;23;20042;-92
2022/02/03 12:53:08;;;;;;;6.30;2.70;;;;;;;;;;6195170;23;20012;-90
2022/02/03 12:55:39;;;;;;;7.65;2.70;;;;;;;;;;6221976;23;20000;-91
2022/02/03 12:58:16;;;;;;;4.60;2.80;;;;;;;;;;6221775;23;20023;-91
2022/02/03 13:00:49;;;;;;;5.57;2.70;;;;;;;;;;6195696;23;20011;-90
2022/02/03 13:03:17;;;;;;;6.25;2.00;;;;;;;;;;6195899;23;20001;-91
2022/02/03 13:05:53;;;;;;;8.27;2.60;;;;;;;;;;6220864;23;20008;-91
2022/02/03 13:08:21;;;;;;;6.55;2.50;;;;;;;;;;6195469;23;20420;-91
2022/02/03 13:10:53;;;;;;;4.95;2.30;;;;;;;;;;6220717;23;20071;-91
2022/02/03 13:13:30;;;;;;;46.72;17.83;;;;;;;;;;6221520;23;20011;-91
2022/02/03 13:15:57;;;;;;;19.60;8.85;;;;;;;;;;6221627;23;20013;-91
2022/02/03 13:18:32;;;;;;;5.88;2.53;;;;;;;;;;6221668;23;20368;-91
2022/02/03 13:21:07;;;;;;;7.38;1.92;;;;;;;;;;6195517;23;20000;-91
2022/02/03 13:23:37;;;;;;;4.85;1.70;;;;;;;;;;6195906;23;20007;-89
2022/02/03 13:28:40;;;;;;;6.05;3.63;;;;;;;;;;6232028;23;20359;-90
2022/02/03 13:33:50;;;;;;;6.75;3.10;;;;;;;;;;6231914;23;20091;-87
2022/02/03 13:36:27;;;;;;;9.00;4.22;;;;;;;;;;6195374;23;20043;-86
2022/02/03 13:39:02;;;;;;;7.35;4.35;;;;;;;;;;6221852;23;20383;-84
2022/02/03 13:41:29;;;;;;;6.30;3.17;;;;;;;;;;6194415;23;20015;-81
2022/02/03 13:43:55;;;;;;;6.22;2.47;;;;;;;;;;6221129;23;20023;-81
2022/02/03 13:46:35;;;;;;;7.85;3.85;;;;;;;;;;6194161;23;20005;-81
2022/02/03 13:49:02;;;;;;;12.57;6.97;;;;;;;;;;6221181;23;19996;-81
2022/02/03 13:51:30;;;;;;;8.02;3.70;;;;;;;;;;6220755;23;20039;-81
2022/02/03 13:54:11;;;;;;;8.88;3.10;;;;;;;;;;6220284;23;20001;-81
2022/02/03 14:28:34;;;;;;;6.70;2.25;;;;;;;;;;6220220;23;20387;-82
2022/02/03 14:31:04;;;;;;;6.95;2.35;;;;;;;;;;6220607;23;20004;-81
2022/02/03 14:33:34;;;;;;;8.77;2.50;;;;;;;;;;6194011;23;20036;-82
2022/02/03 14:36:14;;;;;;;4.13;2.35;;;;;;;;;;6220064;23;20004;-82
2022/02/03 14:41:23;;;;;;;5.80;2.22;;;;;;;;;;6221544;23;20004;-81
2022/02/03 14:43:50;;;;;;;6.07;1.85;;;;;;;;;;6220625;23;20051;-81
2022/02/03 14:46:17;;;;;;;3.78;2.00;;;;;;;;;;6220327;23;20001;-82
2022/02/03 14:48:45;;;;;;;4.50;1.88;;;;;;;;;;6194040;23;20009;-81
2022/02/03 14:51:18;;;;;;;4.65;1.90;;;;;;;;;;6193730;23;20004;-82
2022/02/03 14:59:24;;;;;;;16.60;7.43;;;;;;;;;;6099818;23;20017;-82
2022/02/03 15:01:50;;;;;;;22.65;10.10;;;;;;;;;;6075105;23;20093;-82
2022/02/03 15:04:25;;;;;;;22.05;8.70;;;;;;;;;;6099467;23;20385;-81
2022/02/03 15:06:58;;;;;;;21.13;8.93;;;;;;;;;;6099357;23;20026;-81
2022/02/03 15:12:21;;;;;;;29.90;14.88;;;;;;;;;;6109652;23;20011;-80
2022/02/03 15:14:47;;;;;;;33.67;13.63;;;;;;;;;;6075216;23;20390;-81
2022/02/03 15:17:13;;;;;;;22.38;11.82;;;;;;;;;;6098971;23;20271;-81
2022/02/03 15:19:39;;;;;;;28.30;13.02;;;;;;;;;;6099336;23;19998;-81
2022/02/03 15:22:05;;;;;;;34.40;13.30;;;;;;;;;;6099539;23;20034;-81
2022/02/03 15:24:31;;;;;;;32.15;15.05;;;;;;;;;;6099357;23;20073;-82
2022/02/03 15:27:00;;;;;;;34.60;18.02;;;;;;;;;;6099352;23;20026;-81
2022/02/03 15:29:28;;;;;;;33.20;17.65;;;;;;;;;;6099387;23;20291;-81
2022/02/03 15:31:54;;;;;;;36.92;19.63;;;;;;;;;;6104263;23;20065;-81
2022/02/03 15:34:22;;;;;;;33.33;18.05;;;;;;;;;;6193512;23;20095;-81
2022/02/03 15:36:52;;;;;;;35.00;18.02;;;;;;;;;;6220409;23;20009;-81
2022/02/03 15:39:31;;;;;;;37.33;19.10;;;;;;;;;;6220702;23;19996;-81
2022/02/03 15:41:57;;;;;;;33.63;17.30;;;;;;;;;;6222271;23;20001;-80
2022/02/03 15:44:24;;;;;;;32.17;16.20;;;;;;;;;;6221602;23;20001;-81
2022/02/03 15:47:01;;;;;;;50.10;22.20;;;;;;;;;;6221774;23;20369;-81
2022/02/03 16:19:19;;;;;;;457.17;212.07;;;;;;;;;;6221689;23;20054;-81
2022/02/03 16:22:19;;;;;;;448.58;209.23;;;;;;;;;;6221679;23;20001;-82
2022/02/03 16:24:45;;;;;;;503.85;243.27;;;;;;;;;;6220362;23;20005;-82
2022/02/03 16:41:08;;;;;;;714.53;351.23;;;;;;;;;;6220808;23;20023;-81
2022/02/03 16:54:24;;;;;;;458.75;200.30;;;;;;;;;;6132448;23;20010;-82
2022/02/03 16:56:57;;;;;;;429.45;188.00;;;;;;;;;;6129535;23;20006;-81
2022/02/03 16:59:23;;;;;;;361.67;167.65;;;;;;;;;;6129561;23;20330;-82
2022/02/03 17:01:49;;;;;;;330.33;155.80;;;;;;;;;;6105202;23;20262;-81
2022/02/03 17:04:18;;;;;;;290.10;148.40;;;;;;;;;;6104087;23;20006;-81
2022/02/03 17:06:47;;;;;;;435.67;204.15;;;;;;;;;;6129482;23;20029;-81
2022/02/03 17:09:13;;;;;;;463.73;219.50;;;;;;;;;;6129148;23;20366;-81
2022/02/03 17:11:39;;;;;;;379.23;254.48;;;;;;;;;;6129700;23;20037;-80
2022/02/03 17:14:06;;;;;;;261.65;182.82;;;;;;;;;;6129406;23;20366;-82
2022/02/03 17:16:32;;;;;;;307.90;142.65;;;;;;;;;;6129567;23;20002;-81
2022/02/03 17:18:58;;;;;;;293.40;129.07;;;;;;;;;;6129369;23;20006;-82
2022/02/03 17:21:27;;;;;;;340.75;140.02;;;;;;;;;;6129418;23;20006;-82
2022/02/03 17:23:54;;;;;;;240.60;101.47;;;;;;;;;;6129342;23;20021;-81
2022/02/03 17:26:28;;;;;;;233.77;94.18;;;;;;;;;;6181732;23;20015;-82
2022/02/03 18:04:09;;;;;;;205.50;68.40;;;;;;;;;;6158357;23;20319;-82
2022/02/03 18:09:15;;;;;;;148.05;52.03;;;;;;;;;;6168520;23;20013;-81
2022/02/03 18:33:41;;;;;;;249.05;106.65;;;;;;;;;;6230543;23;20012;-82
2022/02/03 18:55:14;;;;;;;343.30;165.98;;;;;;;;;;6158261;23;20024;-82
2022/02/03 20:05:17;;;;;;;176.45;78.70;;;;;;;;;;6221935;23;20051;-84
2022/02/03 20:07:55;;;;;;;192.25;85.78;;;;;;;;;;6195548;23;20016;-84
2022/02/03 20:10:29;;;;;;;212.27;88.47;;;;;;;;;;6221204;23;20008;-84
2022/02/03 20:13:07;;;;;;;247.18;97.15;;;;;;;;;;6219280;23;20008;-83
2022/02/03 20:15:37;;;;;;;315.48;110.40;;;;;;;;;;6194928;23;20428;-84
2022/02/03 20:18:10;;;;;;;693.67;191.25;;;;;;;;;;6221825;23;20024;-83
2022/02/03 20:20:36;;;;;;;651.60;181.43;;;;;;;;;;6221326;23;20050;-84
2022/02/03 20:23:04;;;;;;;1131.97;304.02;;;;;;;;;;6195062;23;20085;-83
2022/02/03 20:25:30;;;;;;;556.42;186.60;;;;;;;;;;6194467;23;20303;-85
2022/02/03 20:27:56;;;;;;;359.98;154.38;;;;;;;;;;6194710;23;20004;-84
2022/02/03 20:30:22;;;;;;;341.80;148.18;;;;;;;;;;6220820;23;20009;-84
2022/02/03 20:32:48;;;;;;;487.20;210.07;;;;;;;;;;6195486;23;20016;-84
2022/02/03 20:35:15;;;;;;;570.05;241.38;;;;;;;;;;6220948;23;20001;-84
2022/02/03 20:37:41;;;;;;;479.38;222.15;;;;;;;;;;6221504;23;20059;-84
2022/02/03 20:40:07;;;;;;;233.73;112.95;;;;;;;;;;6221105;23;20004;-84
2022/02/03 20:42:33;;;;;;;716.28;270.58;;;;;;;;;;6221634;23;19996;-84
2022/02/03 20:44:59;;;;;;;385.27;139.75;;;;;;;;;;6221429;23;20000;-84
2022/02/03 20:47:27;;;;;;;242.55;105.57;;;;;;;;;;6221384;23;20422;-84
2022/02/03 20:49:53;;;;;;;225.15;103.90;;;;;;;;;;6220463;23;20092;-85
2022/02/03 20:52:19;;;;;;;279.27;113.25;;;;;;;;;;6221604;23;20008;-84
2022/02/03 20:54:46;;;;;;;213.63;98.38;;;;;;;;;;6194559;23;20011;-84
2022/02/03 20:57:12;;;;;;;168.18;82.03;;;;;;;;;;6221552;23;20003;-84
2022/02/03 20:59:56;;;;;;;168.35;83.88;;;;;;;;;;6221435;23;20046;-84
2022/02/03 21:02:35;;;;;;;162.27;79.10;;;;;;;;;;6194624;23;20407;-84
2022/02/03 21:05:34;;;;;;;138.60;69.20;;;;;;;;;;6221449;23;20072;-84
2022/02/03 21:07:53;;;;;;;165.23;80.28;;;;;;;;;;6218085;23;20075;-84
2022/02/03 21:10:25;;;;;;;158.85;78.90;;;;;;;;;;6194866;23;20307;-84
2022/02/03 21:12:54;;;;;;;174.27;81.38;;;;;;;;;;6220889;23;20012;-83
2022/02/03 21:15:26;;;;;;;162.52;77.90;;;;;;;;;;6220882;23;20000;-85
2022/02/03 21:17:53;;;;;;;165.30;85.15;;;;;;;;;;6220820;23;20027;-85
2022/02/03 21:20:24;;;;;;;175.43;83.43;;;;;;;;;;6220098;23;20024;-84
2022/02/03 21:22:50;;;;;;;165.82;82.00;;;;;;;;;;6221416;23;20001;-84
2022/02/03 21:27:46;;;;;;;147.13;73.63;;;;;;;;;;6231457;23;20017;-88
2022/02/03 21:30:14;;;;;;;154.38;75.38;;;;;;;;;;6219948;23;20035;-84
2022/02/03 21:32:40;;;;;;;153.85;71.78;;;;;;;;;;6221344;23;20028;-84
2022/02/03 21:35:07;;;;;;;147.13;69.85;;;;;;;;;;6220636;23;20005;-84
2022/02/03 21:37:33;;;;;;;154.38;74.30;;;;;;;;;;6221003;23;20268;-84
2022/02/03 21:40:00;;;;;;;154.80;72.57;;;;;;;;;;6220217;23;20000;-84
2022/02/03 21:42:26;;;;;;;158.35;72.65;;;;;;;;;;6221372;23;20001;-84
2022/02/03 21:44:52;;;;;;;147.82;68.68;;;;;;;;;;6221438;23;20073;-84
2022/02/03 21:47:18;;;;;;;129.20;62.58;;;;;;;;;;6194656;23;20008;-84
2022/02/03 21:49:45;;;;;;;133.95;63.85;;;;;;;;;;6221265;23;20016;-84
2022/02/03 21:52:19;;;;;;;128.93;67.10;;;;;;;;;;6220977;23;20394;-85
2022/02/03 21:57:53;;;;;;;126.75;63.35;;;;;;;;;;6220655;23;20079;-85
2022/02/03 22:00:19;;;;;;;129.45;64.93;;;;;;;;;;6221036;23;20011;-85
2022/02/03 22:02:46;;;;;;;135.63;67.25;;;;;;;;;;6220307;23;20080;-84
2022/02/03 22:05:12;;;;;;;122.13;60.95;;;;;;;;;;6220741;23;20004;-84
2022/02/03 22:07:42;;;;;;;117.80;56.33;;;;;;;;;;6220923;23;20390;-85
2022/02/03 22:10:10;;;;;;;123.07;59.67;;;;;;;;;;6220678;23;20024;-85
2022/02/03 22:12:37;;;;;;;107.57;55.72;;;;;;;;;;6220824;23;20008;-85
2022/02/03 22:15:03;;;;;;;102.47;50.80;;;;;;;;;;6194416;23;20015;-85
2022/02/03 22:17:30;;;;;;;100.15;49.13;;;;;;;;;;6220280;23;20368;-85
2022/02/03 22:19:56;;;;;;;101.90;53.03;;;;;;;;;;6220791;23;20107;-84
2022/02/03 22:38:40;;;;;;;76.10;39.78;;;;;;;;;;6220575;23;20275;-85
2022/02/03 22:43:59;;;;;;;69.60;37.13;;;;;;;;;;6220622;23;20064;-85
2022/02/03 22:49:01;;;;;;;78.00;40.00;;;;;;;;;;6221617;23;20020;-85
2022/02/03 22:51:28;;;;;;;82.00;42.35;;;;;;;;;;6223080;23;20252;-85
2022/02/03 22:53:54;;;;;;;95.65;47.72;;;;;;;;;;6223087;23;20001;-85
2022/02/03 22:56:20;;;;;;;91.30;46.97;;;;;;;;;;6222212;23;20005;-85
2022/02/03 23:01:33;;;;;;;74.65;38.85;;;;;;;;;;6222375;23;20011;-84
2022/02/03 23:03:59;;;;;;;63.97;35.50;;;;;;;;;;6222359;23;20043;-85
2022/02/03 23:06:25;;;;;;;66.35;35.92;;;;;;;;;;6195642;23;20013;-85
2022/02/03 23:08:57;;;;;;;61.35;33.30;;;;;;;;;;6222329;23;20012;-86
2022/02/03 23:16:43;;;;;;;64.38;32.78;;;;;;;;;;6224518;23;20048;-85
2022/02/03 23:21:50;;;;;;;55.30;31.27;;;;;;;;;;6233060;23;20004;-85
2022/02/03 23:24:18;;;;;;;56.55;29.17;;;;;;;;;;6196916;23;20303;-85
2022/02/03 23:26:49;;;;;;;51.40;27.15;;;;;;;;;;6222472;23;19997;-86
2022/02/03 23:29:17;;;;;;;57.10;29.23;;;;;;;;;;6195814;23;20024;-85
2022/02/03 23:34:15;;;;;;;59.97;29.75;;;;;;;;;;6232681;23;20009;-84
2022/02/03 23:36:41;;;;;;;71.25;30.98;;;;;;;;;;6223061;23;20005;-85
2022/02/03 23:39:19;;;;;;;70.60;32.50;;;;;;;;;;6222472;23;20001;-84
